sensor_id;sensor_type;location;lat;lon;timestamp;pressure;altitude;pressure_sealevel;temperature;humidity
56713;BME280;42589;45.536;9.032;2023-04-02T00:08:39;98590.34;;;19.06;27.81
56713;BME280;42589;45.536;9.032;2023-04-02T00:11:42;98598.53;;;18.99;27.84
56713;BME280;42589;45.536;9.032;2023-04-02T00:14:52;98596.78;;;18.58;28.35
56713;BME280;42589;45.536;9.032;2023-04-02T00:17:53;98577.44;;;18.49;28.18
56713;BME280;42589;45.536;9.032;2023-04-02T00:21:11;98615.41;;;18.94;28.12
56713;BME280;42589;45.536;9.032;2023-04-02T00:24:16;98626.66;;;18.79;28.29
56713;BME280;42589;45.536;9.032;2023-04-02T00:27:18;98610.50;;;18.91;28.07
56713;BME280;42589;45.536;9.032;2023-04-02T00:30:19;98604.00;;;19.28;27.74
56713;BME280;42589;45.536;9.032;2023-04-02T00:33:22;98573.94;;;19.19;27.84
56713;BME280;42589;45.536;9.032;2023-04-02T00:36:29;98599.56;;;19.21;28.08
56713;BME280;42589;45.536;9.032;2023-04-02T00:39:39;98605.78;;;19.22;28.54
56713;BME280;42589;45.536;9.032;2023-04-02T00:42:40;98610.47;;;19.15;28.45
56713;BME280;42589;45.536;9.032;2023-04-02T00:45:43;98606.88;;;18.97;28.37
56713;BME280;42589;45.536;9.032;2023-04-02T00:49:18;98608.38;;;19.05;28.64
56713;BME280;42589;45.536;9.032;2023-04-02T00:52:26;98619.97;;;19.06;28.77
56713;BME280;42589;45.536;9.032;2023-04-02T00:55:48;98629.09;;;18.93;28.76
56713;BME280;42589;45.536;9.032;2023-04-02T00:58:51;98628.13;;;18.52;29.35
56713;BME280;42589;45.536;9.032;2023-04-02T01:01:57;98626.28;;;18.99;28.78
56713;BME280;42589;45.536;9.032;2023-04-02T01:11:35;98635.41;;;18.63;29.51
56713;BME280;42589;45.536;9.032;2023-04-02T01:15:10;98623.16;;;18.79;28.93
56713;BME280;42589;45.536;9.032;2023-04-02T01:18:29;98626.41;;;19.16;28.49
56713;BME280;42589;45.536;9.032;2023-04-02T01:22:40;98635.91;;;19.19;28.45
56713;BME280;42589;45.536;9.032;2023-04-02T01:25:17;98630.16;;;18.92;28.72
56713;BME280;42589;45.536;9.032;2023-04-02T01:28:32;98624.28;;;18.71;29.20
56713;BME280;42589;45.536;9.032;2023-04-02T01:31:36;98635.72;;;18.55;29.14
56713;BME280;42589;45.536;9.032;2023-04-02T01:34:37;98657.53;;;18.65;29.10
56713;BME280;42589;45.536;9.032;2023-04-02T01:41:04;98629.56;;;18.90;28.84
56713;BME280;42589;45.536;9.032;2023-04-02T01:44:11;98628.78;;;18.77;28.92
56713;BME280;42589;45.536;9.032;2023-04-02T01:47:17;98633.50;;;18.52;29.44
56713;BME280;42589;45.536;9.032;2023-04-02T01:50:29;98658.44;;;18.71;29.34
56713;BME280;42589;45.536;9.032;2023-04-02T01:53:30;98627.53;;;18.50;28.97
56713;BME280;42589;45.536;9.032;2023-04-02T01:56:31;98656.75;;;18.35;29.60
56713;BME280;42589;45.536;9.032;2023-04-02T01:59:33;98669.31;;;18.64;29.30
56713;BME280;42589;45.536;9.032;2023-04-02T02:02:35;98668.91;;;18.79;28.92
56713;BME280;42589;45.536;9.032;2023-04-02T02:05:36;98663.06;;;18.82;28.72
56713;BME280;42589;45.536;9.032;2023-04-02T02:11:48;98687.03;;;18.72;29.12
56713;BME280;42589;45.536;9.032;2023-04-02T02:14:50;98684.97;;;18.97;28.58
56713;BME280;42589;45.536;9.032;2023-04-02T02:17:58;98684.66;;;18.64;29.70
56713;BME280;42589;45.536;9.032;2023-04-02T02:21:02;98695.72;;;18.86;28.69
56713;BME280;42589;45.536;9.032;2023-04-02T02:24:09;98690.94;;;18.88;28.82
56713;BME280;42589;45.536;9.032;2023-04-02T02:30:26;98704.63;;;18.74;29.40
56713;BME280;42589;45.536;9.032;2023-04-02T02:33:33;98720.34;;;18.59;29.30
56713;BME280;42589;45.536;9.032;2023-04-02T02:36:42;98687.88;;;18.42;29.46
56713;BME280;42589;45.536;9.032;2023-04-02T02:39:50;98686.28;;;18.11;29.75
56713;BME280;42589;45.536;9.032;2023-04-02T02:42:58;98697.38;;;18.45;29.52
56713;BME280;42589;45.536;9.032;2023-04-02T02:46:03;98723.00;;;18.47;29.86
56713;BME280;42589;45.536;9.032;2023-04-02T02:49:05;98708.94;;;18.33;29.67
56713;BME280;42589;45.536;9.032;2023-04-02T02:55:20;98726.47;;;18.36;29.94
56713;BME280;42589;45.536;9.032;2023-04-02T02:58:24;98725.53;;;18.30;30.39
56713;BME280;42589;45.536;9.032;2023-04-02T03:01:28;98730.63;;;18.50;29.35
56713;BME280;42589;45.536;9.032;2023-04-02T03:04:29;98723.19;;;18.34;30.00
56713;BME280;42589;45.536;9.032;2023-04-02T03:07:34;98725.16;;;18.27;29.95
56713;BME280;42589;45.536;9.032;2023-04-02T03:10:43;98741.59;;;18.19;30.69
56713;BME280;42589;45.536;9.032;2023-04-02T03:13:48;98744.56;;;17.99;30.82
56713;BME280;42589;45.536;9.032;2023-04-02T03:16:53;98737.56;;;17.79;30.95
56713;BME280;42589;45.536;9.032;2023-04-02T03:20:01;98739.81;;;17.82;31.55
56713;BME280;42589;45.536;9.032;2023-04-02T03:23:41;98765.38;;;18.22;30.65
56713;BME280;42589;45.536;9.032;2023-04-02T03:27:05;98755.53;;;17.97;30.72
56713;BME280;42589;45.536;9.032;2023-04-02T03:33:41;98754.38;;;18.23;29.97
56713;BME280;42589;45.536;9.032;2023-04-02T03:36:53;98756.19;;;17.56;31.95
56713;BME280;42589;45.536;9.032;2023-04-02T03:40:09;98767.25;;;18.03;30.81
56713;BME280;42589;45.536;9.032;2023-04-02T03:43:20;98759.75;;;17.68;31.63
56713;BME280;42589;45.536;9.032;2023-04-02T03:46:40;98781.31;;;17.86;31.48
56713;BME280;42589;45.536;9.032;2023-04-02T03:49:48;98779.81;;;17.47;31.93
56713;BME280;42589;45.536;9.032;2023-04-02T03:52:52;98784.63;;;17.63;31.85
56713;BME280;42589;45.536;9.032;2023-04-02T03:55:53;98780.53;;;17.61;31.73
56713;BME280;42589;45.536;9.032;2023-04-02T03:59:20;98795.44;;;17.75;31.47
56713;BME280;42589;45.536;9.032;2023-04-02T04:09:21;98771.63;;;17.42;31.25
56713;BME280;42589;45.536;9.032;2023-04-02T04:12:29;98792.66;;;17.45;32.18
56713;BME280;42589;45.536;9.032;2023-04-02T04:15:50;98797.97;;;17.52;32.64
56713;BME280;42589;45.536;9.032;2023-04-02T04:19:05;98797.13;;;17.33;32.95
56713;BME280;42589;45.536;9.032;2023-04-02T04:22:31;98810.97;;;17.55;32.58
56713;BME280;42589;45.536;9.032;2023-04-02T04:25:33;98813.44;;;17.31;32.69
56713;BME280;42589;45.536;9.032;2023-04-02T04:28:58;98804.72;;;17.36;32.56
56713;BME280;42589;45.536;9.032;2023-04-02T04:38:40;98823.25;;;17.44;33.05
56713;BME280;42589;45.536;9.032;2023-04-02T04:41:48;98815.09;;;17.07;32.92
56713;BME280;42589;45.536;9.032;2023-04-02T04:45:02;98835.78;;;17.32;33.04
56713;BME280;42589;45.536;9.032;2023-04-02T04:51:25;98831.84;;;17.28;33.08
56713;BME280;42589;45.536;9.032;2023-04-02T04:54:28;98814.69;;;16.79;33.72
56713;BME280;42589;45.536;9.032;2023-04-02T04:57:35;98844.72;;;16.94;33.49
56713;BME280;42589;45.536;9.032;2023-04-02T05:10:37;98857.94;;;17.21;33.33
56713;BME280;42589;45.536;9.032;2023-04-02T05:13:49;98846.50;;;17.07;33.43
56713;BME280;42589;45.536;9.032;2023-04-02T05:17:12;98867.81;;;17.27;33.04
56713;BME280;42589;45.536;9.032;2023-04-02T05:20:26;98882.06;;;17.27;33.46
56713;BME280;42589;45.536;9.032;2023-04-02T05:23:33;98884.81;;;17.21;33.33
56713;BME280;42589;45.536;9.032;2023-04-02T05:26:41;98847.47;;;17.12;33.54
56713;BME280;42589;45.536;9.032;2023-04-02T05:29:55;98895.09;;;17.24;33.44
56713;BME280;42589;45.536;9.032;2023-04-02T05:33:03;98890.09;;;17.02;32.96
56713;BME280;42589;45.536;9.032;2023-04-02T05:36:09;98908.16;;;17.20;33.16
56713;BME280;42589;45.536;9.032;2023-04-02T05:39:19;98883.50;;;17.30;32.82
56713;BME280;42589;45.536;9.032;2023-04-02T05:42:30;98912.56;;;17.64;32.66
56713;BME280;42589;45.536;9.032;2023-04-02T05:45:39;98917.88;;;17.46;32.81
56713;BME280;42589;45.536;9.032;2023-04-02T05:48:42;98914.81;;;16.66;33.93
56713;BME280;42589;45.536;9.032;2023-04-02T05:51:48;98917.69;;;17.16;33.25
56713;BME280;42589;45.536;9.032;2023-04-02T05:55:30;98924.28;;;17.77;32.69
56713;BME280;42589;45.536;9.032;2023-04-02T05:58:37;98922.22;;;17.72;33.08
56713;BME280;42589;45.536;9.032;2023-04-02T06:05:39;98923.84;;;17.80;33.52
56713;BME280;42589;45.536;9.032;2023-04-02T06:08:48;98925.97;;;17.96;33.42
56713;BME280;42589;45.536;9.032;2023-04-02T06:12:00;98935.78;;;17.84;33.85
56713;BME280;42589;45.536;9.032;2023-04-02T06:15:04;98928.81;;;17.76;33.87
56713;BME280;42589;45.536;9.032;2023-04-02T06:21:46;98947.91;;;18.18;33.81
56713;BME280;42589;45.536;9.032;2023-04-02T06:24:54;98945.88;;;17.89;34.26
56713;BME280;42589;45.536;9.032;2023-04-02T06:27:58;98963.72;;;18.08;34.80
56713;BME280;42589;45.536;9.032;2023-04-02T06:31:08;98952.97;;;17.83;35.59
56713;BME280;42589;45.536;9.032;2023-04-02T06:34:15;98936.31;;;18.18;34.89
56713;BME280;42589;45.536;9.032;2023-04-02T06:37:33;98966.09;;;18.16;36.04
56713;BME280;42589;45.536;9.032;2023-04-02T06:40:45;98964.34;;;18.47;35.83
56713;BME280;42589;45.536;9.032;2023-04-02T06:43:55;98969.16;;;18.82;35.53
56713;BME280;42589;45.536;9.032;2023-04-02T06:47:01;98990.16;;;18.73;35.89
56713;BME280;42589;45.536;9.032;2023-04-02T06:50:25;98985.66;;;18.67;36.58
56713;BME280;42589;45.536;9.032;2023-04-02T06:53:32;98993.84;;;19.57;35.53
56713;BME280;42589;45.536;9.032;2023-04-02T06:59:41;99001.91;;;18.97;37.41
56713;BME280;42589;45.536;9.032;2023-04-02T07:02:42;98976.75;;;19.33;37.40
56713;BME280;42589;45.536;9.032;2023-04-02T07:05:43;99014.22;;;19.95;36.40
56713;BME280;42589;45.536;9.032;2023-04-02T07:08:44;99007.00;;;19.65;37.31
56713;BME280;42589;45.536;9.032;2023-04-02T07:11:44;98993.38;;;20.14;36.84
56713;BME280;42589;45.536;9.032;2023-04-02T07:14:45;99012.94;;;21.20;36.01
56713;BME280;42589;45.536;9.032;2023-04-02T07:17:48;99025.16;;;20.24;38.26
56713;BME280;42589;45.536;9.032;2023-04-02T07:20:49;99022.81;;;20.74;37.66
56713;BME280;42589;45.536;9.032;2023-04-02T07:23:50;99026.09;;;21.28;37.43
56713;BME280;42589;45.536;9.032;2023-04-02T07:26:51;99026.50;;;21.66;35.91
56713;BME280;42589;45.536;9.032;2023-04-02T07:29:52;99032.38;;;21.34;36.72
56713;BME280;42589;45.536;9.032;2023-04-02T07:32:54;99021.16;;;21.25;36.82
56713;BME280;42589;45.536;9.032;2023-04-02T07:35:56;99015.53;;;20.75;37.42
56713;BME280;42589;45.536;9.032;2023-04-02T07:38:57;99025.00;;;20.89;37.56
56713;BME280;42589;45.536;9.032;2023-04-02T07:42:00;99029.03;;;20.39;39.24
56713;BME280;42589;45.536;9.032;2023-04-02T07:45:01;99048.59;;;21.91;36.71
56713;BME280;42589;45.536;9.032;2023-04-02T07:48:07;99052.97;;;21.92;36.79
56713;BME280;42589;45.536;9.032;2023-04-02T07:51:19;99037.81;;;22.81;35.33
56713;BME280;42589;45.536;9.032;2023-04-02T07:54:20;99046.66;;;23.15;34.41
56713;BME280;42589;45.536;9.032;2023-04-02T07:57:22;99045.34;;;22.06;36.42
56713;BME280;42589;45.536;9.032;2023-04-02T08:00:23;99038.63;;;22.42;35.87
56713;BME280;42589;45.536;9.032;2023-04-02T08:03:25;99006.16;;;22.25;36.08
56713;BME280;42589;45.536;9.032;2023-04-02T08:06:25;99019.72;;;22.86;33.99
56713;BME280;42589;45.536;9.032;2023-04-02T08:09:27;99049.28;;;22.88;34.14
56713;BME280;42589;45.536;9.032;2023-04-02T08:12:28;99021.91;;;22.67;34.50
56713;BME280;42589;45.536;9.032;2023-04-02T08:15:29;99030.53;;;24.06;33.12
56713;BME280;42589;45.536;9.032;2023-04-02T08:18:30;99042.44;;;24.38;32.65
56713;BME280;42589;45.536;9.032;2023-04-02T08:21:30;99024.41;;;24.21;31.83
56713;BME280;42589;45.536;9.032;2023-04-02T08:24:33;99021.53;;;23.47;32.88
56713;BME280;42589;45.536;9.032;2023-04-02T08:27:34;99046.09;;;23.62;32.97
56713;BME280;42589;45.536;9.032;2023-04-02T08:30:34;99030.88;;;23.83;31.90
56713;BME280;42589;45.536;9.032;2023-04-02T08:33:39;99049.00;;;23.06;33.56
56713;BME280;42589;45.536;9.032;2023-04-02T08:36:42;99062.03;;;23.53;32.23
56713;BME280;42589;45.536;9.032;2023-04-02T08:39:43;99055.97;;;23.95;31.58
56713;BME280;42589;45.536;9.032;2023-04-02T08:42:51;99039.69;;;23.95;31.49
56713;BME280;42589;45.536;9.032;2023-04-02T08:46:17;99077.47;;;25.19;31.17
56713;BME280;42589;45.536;9.032;2023-04-02T08:49:51;99072.63;;;24.41;30.67
56713;BME280;42589;45.536;9.032;2023-04-02T08:52:54;99061.53;;;24.48;29.19
56713;BME280;42589;45.536;9.032;2023-04-02T08:56:13;99085.25;;;24.58;29.25
56713;BME280;42589;45.536;9.032;2023-04-02T08:59:33;99081.13;;;24.50;29.57
56713;BME280;42589;45.536;9.032;2023-04-02T09:02:45;99049.31;;;24.13;29.70
56713;BME280;42589;45.536;9.032;2023-04-02T09:05:51;99040.72;;;23.94;29.05
56713;BME280;42589;45.536;9.032;2023-04-02T09:08:54;99047.22;;;24.25;28.95
56713;BME280;42589;45.536;9.032;2023-04-02T09:12:00;99077.72;;;23.73;29.70
56713;BME280;42589;45.536;9.032;2023-04-02T09:18:16;99060.38;;;24.01;29.25
56713;BME280;42589;45.536;9.032;2023-04-02T09:21:30;99078.94;;;24.20;30.73
56713;BME280;42589;45.536;9.032;2023-04-02T09:24:34;99072.88;;;23.53;30.38
56713;BME280;42589;45.536;9.032;2023-04-02T09:27:35;99083.44;;;24.36;29.78
56713;BME280;42589;45.536;9.032;2023-04-02T09:33:50;99091.69;;;24.89;29.55
56713;BME280;42589;45.536;9.032;2023-04-02T09:36:50;99101.50;;;25.37;28.52
56713;BME280;42589;45.536;9.032;2023-04-02T09:39:53;99066.56;;;25.14;28.00
56713;BME280;42589;45.536;9.032;2023-04-02T09:43:13;99064.63;;;25.09;28.68
56713;BME280;42589;45.536;9.032;2023-04-02T09:46:22;99107.09;;;25.88;27.98
56713;BME280;42589;45.536;9.032;2023-04-02T09:49:27;99101.81;;;25.51;27.16
56713;BME280;42589;45.536;9.032;2023-04-02T09:52:28;99105.75;;;24.75;27.89
56713;BME280;42589;45.536;9.032;2023-04-02T09:55:30;99108.28;;;24.87;28.11
56713;BME280;42589;45.536;9.032;2023-04-02T09:58:31;99107.97;;;25.26;27.95
56713;BME280;42589;45.536;9.032;2023-04-02T10:01:34;99123.31;;;25.00;28.04
56713;BME280;42589;45.536;9.032;2023-04-02T10:04:41;99087.63;;;24.91;27.50
56713;BME280;42589;45.536;9.032;2023-04-02T10:07:53;99103.38;;;24.89;27.04
56713;BME280;42589;45.536;9.032;2023-04-02T10:10:56;99124.03;;;24.85;26.72
56713;BME280;42589;45.536;9.032;2023-04-02T10:14:10;99115.38;;;25.41;26.91
56713;BME280;42589;45.536;9.032;2023-04-02T10:17:35;99100.09;;;24.45;28.18
56713;BME280;42589;45.536;9.032;2023-04-02T10:20:38;99091.59;;;24.36;28.83
56713;BME280;42589;45.536;9.032;2023-04-02T10:23:40;99074.00;;;24.12;28.66
56713;BME280;42589;45.536;9.032;2023-04-02T10:27:06;99131.41;;;25.42;26.84
56713;BME280;42589;45.536;9.032;2023-04-02T10:33:28;99093.66;;;24.93;26.94
56713;BME280;42589;45.536;9.032;2023-04-02T10:39:52;99099.31;;;24.92;26.62
56713;BME280;42589;45.536;9.032;2023-04-02T10:46:40;99100.28;;;25.18;25.88
56713;BME280;42589;45.536;9.032;2023-04-02T10:50:24;99122.22;;;25.59;25.45
56713;BME280;42589;45.536;9.032;2023-04-02T10:57:33;99122.19;;;25.48;25.31
56713;BME280;42589;45.536;9.032;2023-04-02T11:00:40;99111.47;;;24.74;25.55
56713;BME280;42589;45.536;9.032;2023-04-02T11:03:48;99112.41;;;25.47;25.17
56713;BME280;42589;45.536;9.032;2023-04-02T11:06:58;99090.16;;;25.03;25.78
56713;BME280;42589;45.536;9.032;2023-04-02T11:10:00;99121.00;;;25.19;25.28
56713;BME280;42589;45.536;9.032;2023-04-02T11:13:12;99115.72;;;25.60;25.18
56713;BME280;42589;45.536;9.032;2023-04-02T11:16:14;99128.63;;;25.85;24.13
56713;BME280;42589;45.536;9.032;2023-04-02T11:22:22;99098.31;;;25.08;25.38
56713;BME280;42589;45.536;9.032;2023-04-02T11:25:23;99112.88;;;25.29;25.18
56713;BME280;42589;45.536;9.032;2023-04-02T11:31:26;99075.53;;;26.03;24.51
56713;BME280;42589;45.536;9.032;2023-04-02T11:34:58;99070.09;;;25.98;24.28
56713;BME280;42589;45.536;9.032;2023-04-02T11:41:09;99110.94;;;26.03;24.59
56713;BME280;42589;45.536;9.032;2023-04-02T11:44:21;99079.81;;;25.63;25.33
56713;BME280;42589;45.536;9.032;2023-04-02T11:47:28;99071.72;;;24.30;26.99
56713;BME280;42589;45.536;9.032;2023-04-02T11:50:38;99083.06;;;24.97;26.48
56713;BME280;42589;45.536;9.032;2023-04-02T11:53:41;99122.50;;;24.99;26.02
56713;BME280;42589;45.536;9.032;2023-04-02T11:56:52;99116.28;;;25.67;25.51
56713;BME280;42589;45.536;9.032;2023-04-02T12:00:02;99123.22;;;26.21;25.32
56713;BME280;42589;45.536;9.032;2023-04-02T12:10:19;99130.59;;;25.42;26.32
56713;BME280;42589;45.536;9.032;2023-04-02T12:16:41;99107.13;;;25.15;25.72
56713;BME280;42589;45.536;9.032;2023-04-02T12:20:19;99063.50;;;24.58;25.95
56713;BME280;42589;45.536;9.032;2023-04-02T12:23:25;99082.28;;;25.12;26.34
56713;BME280;42589;45.536;9.032;2023-04-02T12:26:35;99095.41;;;25.98;26.82
56713;BME280;42589;45.536;9.032;2023-04-02T12:29:41;99078.97;;;25.62;26.08
56713;BME280;42589;45.536;9.032;2023-04-02T12:32:49;99064.78;;;24.87;26.80
56713;BME280;42589;45.536;9.032;2023-04-02T12:35:54;99062.38;;;25.54;25.86
56713;BME280;42589;45.536;9.032;2023-04-02T12:39:20;99112.03;;;26.22;25.12
56713;BME280;42589;45.536;9.032;2023-04-02T12:42:31;99116.91;;;26.00;25.80
56713;BME280;42589;45.536;9.032;2023-04-02T12:45:32;99088.56;;;25.90;26.05
56713;BME280;42589;45.536;9.032;2023-04-02T12:48:34;99077.81;;;25.38;26.41
56713;BME280;42589;45.536;9.032;2023-04-02T12:51:36;99075.31;;;25.26;26.49
56713;BME280;42589;45.536;9.032;2023-04-02T12:54:44;99056.97;;;25.79;26.79
56713;BME280;42589;45.536;9.032;2023-04-02T12:57:45;99068.63;;;25.54;26.88
56713;BME280;42589;45.536;9.032;2023-04-02T13:01:16;99109.00;;;25.83;26.28
56713;BME280;42589;45.536;9.032;2023-04-02T13:04:17;99062.25;;;25.23;27.40
56713;BME280;42589;45.536;9.032;2023-04-02T13:07:20;99099.25;;;26.74;25.94
56713;BME280;42589;45.536;9.032;2023-04-02T13:10:25;99106.63;;;25.34;26.91
56713;BME280;42589;45.536;9.032;2023-04-02T13:13:34;99090.97;;;25.66;26.83
56713;BME280;42589;45.536;9.032;2023-04-02T13:16:37;99098.69;;;26.26;26.77
56713;BME280;42589;45.536;9.032;2023-04-02T13:19:38;99098.94;;;25.88;26.36
56713;BME280;42589;45.536;9.032;2023-04-02T13:22:39;99074.44;;;26.19;26.47
56713;BME280;42589;45.536;9.032;2023-04-02T13:25:44;99091.34;;;26.26;25.57
56713;BME280;42589;45.536;9.032;2023-04-02T13:29:17;99096.13;;;25.68;26.64
56713;BME280;42589;45.536;9.032;2023-04-02T13:32:18;99073.03;;;25.76;26.57
56713;BME280;42589;45.536;9.032;2023-04-02T13:35:22;99082.03;;;25.86;25.70
56713;BME280;42589;45.536;9.032;2023-04-02T13:38:23;99086.56;;;25.50;26.61
56713;BME280;42589;45.536;9.032;2023-04-02T13:41:25;99091.75;;;25.57;26.29
56713;BME280;42589;45.536;9.032;2023-04-02T13:44:28;99077.16;;;25.88;26.78
56713;BME280;42589;45.536;9.032;2023-04-02T13:47:30;99082.03;;;25.81;26.17
56713;BME280;42589;45.536;9.032;2023-04-02T13:50:33;99089.06;;;25.72;26.76
56713;BME280;42589;45.536;9.032;2023-04-02T13:53:34;99063.00;;;25.97;26.84
56713;BME280;42589;45.536;9.032;2023-04-02T13:56:36;99083.97;;;26.62;25.72
56713;BME280;42589;45.536;9.032;2023-04-02T13:59:37;99082.09;;;26.58;25.40
56713;BME280;42589;45.536;9.032;2023-04-02T14:02:43;99062.28;;;25.33;26.64
56713;BME280;42589;45.536;9.032;2023-04-02T14:06:01;99092.38;;;25.84;26.36
56713;BME280;42589;45.536;9.032;2023-04-02T14:26:34;99075.19;;;26.86;25.24
56713;BME280;42589;45.536;9.032;2023-04-02T14:29:20;99073.63;;;26.65;25.26
56713;BME280;42589;45.536;9.032;2023-04-02T14:32:42;99080.69;;;26.20;25.74
56713;BME280;42589;45.536;9.032;2023-04-02T14:35:53;99060.00;;;25.93;25.80
56713;BME280;42589;45.536;9.032;2023-04-02T14:39:16;99084.81;;;26.17;25.32
56713;BME280;42589;45.536;9.032;2023-04-02T14:42:30;99058.63;;;26.31;25.62
56713;BME280;42589;45.536;9.032;2023-04-02T14:46:04;99078.53;;;26.01;25.73
56713;BME280;42589;45.536;9.032;2023-04-02T14:52:22;99075.41;;;27.10;24.93
56713;BME280;42589;45.536;9.032;2023-04-02T14:55:33;99081.28;;;27.43;24.94
56713;BME280;42589;45.536;9.032;2023-04-02T14:58:38;99056.69;;;26.78;24.74
56713;BME280;42589;45.536;9.032;2023-04-02T15:01:42;99065.19;;;26.05;24.67
56713;BME280;42589;45.536;9.032;2023-04-02T15:05:12;99063.81;;;26.69;23.95
56713;BME280;42589;45.536;9.032;2023-04-02T15:11:56;99070.47;;;27.22;24.95
56713;BME280;42589;45.536;9.032;2023-04-02T15:15:18;99078.25;;;26.33;25.75
56713;BME280;42589;45.536;9.032;2023-04-02T15:18:19;99058.84;;;26.86;24.59
56713;BME280;42589;45.536;9.032;2023-04-02T15:28:12;99064.19;;;27.12;25.01
56713;BME280;42589;45.536;9.032;2023-04-02T15:31:22;99081.84;;;27.45;24.80
56713;BME280;42589;45.536;9.032;2023-04-02T15:34:40;99070.03;;;26.84;25.48
56713;BME280;42589;45.536;9.032;2023-04-02T15:37:55;99090.25;;;26.63;25.29
56713;BME280;42589;45.536;9.032;2023-04-02T15:41:03;99076.19;;;27.26;24.74
56713;BME280;42589;45.536;9.032;2023-04-02T15:44:13;99079.09;;;27.45;23.96
56713;BME280;42589;45.536;9.032;2023-04-02T15:47:24;99084.31;;;27.36;23.87
56713;BME280;42589;45.536;9.032;2023-04-02T15:54:18;99087.97;;;27.71;23.23
56713;BME280;42589;45.536;9.032;2023-04-02T16:04:24;99097.66;;;31.67;19.35
56713;BME280;42589;45.536;9.032;2023-04-02T16:10:55;99106.25;;;30.31;19.95
56713;BME280;42589;45.536;9.032;2023-04-02T16:14:26;99108.66;;;30.51;19.53
56713;BME280;42589;45.536;9.032;2023-04-02T16:17:33;99106.72;;;31.26;18.90
56713;BME280;42589;45.536;9.032;2023-04-02T16:20:38;99112.22;;;31.26;18.06
56713;BME280;42589;45.536;9.032;2023-04-02T16:23:41;99117.44;;;32.81;16.88
56713;BME280;42589;45.536;9.032;2023-04-02T16:27:11;99120.06;;;32.55;18.23
56713;BME280;42589;45.536;9.032;2023-04-02T16:31:16;99108.38;;;32.81;17.06
56713;BME280;42589;45.536;9.032;2023-04-02T16:37:32;99116.94;;;33.50;16.71
56713;BME280;42589;45.536;9.032;2023-04-02T16:40:46;99119.09;;;32.60;17.65
56713;BME280;42589;45.536;9.032;2023-04-02T16:44:18;99100.22;;;31.22;18.30
56713;BME280;42589;45.536;9.032;2023-04-02T16:47:49;99122.31;;;30.19;19.62
56713;BME280;42589;45.536;9.032;2023-04-02T16:51:34;99119.03;;;29.17;20.56
56713;BME280;42589;45.536;9.032;2023-04-02T16:57:36;99119.50;;;28.42;21.56
56713;BME280;42589;45.536;9.032;2023-04-02T17:01:06;99111.97;;;27.79;21.95
56713;BME280;42589;45.536;9.032;2023-04-02T17:04:28;99124.31;;;27.66;22.34
56713;BME280;42589;45.536;9.032;2023-04-02T17:07:51;99125.56;;;27.24;23.01
56713;BME280;42589;45.536;9.032;2023-04-02T17:14:05;99133.78;;;27.09;22.90
56713;BME280;42589;45.536;9.032;2023-04-02T17:17:13;99140.38;;;26.93;23.07
56713;BME280;42589;45.536;9.032;2023-04-02T17:20:21;99135.47;;;26.33;23.70
56713;BME280;42589;45.536;9.032;2023-04-02T17:23:23;99133.84;;;26.43;23.75
56713;BME280;42589;45.536;9.032;2023-04-02T17:26:28;99138.75;;;26.40;23.35
56713;BME280;42589;45.536;9.032;2023-04-02T17:29:39;99116.94;;;26.35;23.42
56713;BME280;42589;45.536;9.032;2023-04-02T17:32:41;99135.44;;;26.13;23.44
56713;BME280;42589;45.536;9.032;2023-04-02T17:39:13;99166.41;;;25.81;25.37
56713;BME280;42589;45.536;9.032;2023-04-02T17:42:23;99175.56;;;25.55;
56713;BME280;42589;45.536;9.032;2023-04-02T17:45:43;99180.63;;;25.36;26.79
56713;BME280;42589;45.536;9.032;2023-04-02T17:48:53;99189.28;;;25.22;27.09
56713;BME280;42589;45.536;9.032;2023-04-02T17:58:52;99198.72;;;25.15;26.73
56713;BME280;42589;45.536;9.032;2023-04-02T18:06:03;99201.69;;;24.76;27.15
56713;BME280;42589;45.536;9.032;2023-04-02T18:19:09;99217.91;;;24.39;27.78
56713;BME280;42589;45.536;9.032;2023-04-02T18:22:17;99221.47;;;24.39;27.84
56713;BME280;42589;45.536;9.032;2023-04-02T18:29:29;99240.03;;;24.25;28.02
56713;BME280;42589;45.536;9.032;2023-04-02T18:39:14;99249.59;;;24.06;28.43
56713;BME280;42589;45.536;9.032;2023-04-02T18:42:36;99211.06;;;23.82;28.46
56713;BME280;42589;45.536;9.032;2023-04-02T18:49:19;99249.72;;;23.94;28.62
56713;BME280;42589;45.536;9.032;2023-04-02T18:52:28;99268.50;;;23.96;28.54
56713;BME280;42589;45.536;9.032;2023-04-02T18:55:30;99263.19;;;23.84;28.54
56713;BME280;42589;45.536;9.032;2023-04-02T19:01:50;99229.63;;;23.51;28.66
56713;BME280;42589;45.536;9.032;2023-04-02T19:05:27;99288.69;;;23.83;28.75
56713;BME280;42589;45.536;9.032;2023-04-02T19:08:49;99238.53;;;23.30;29.26
56713;BME280;42589;45.536;9.032;2023-04-02T19:12:01;99246.53;;;23.20;29.12
56713;BME280;42589;45.536;9.032;2023-04-02T19:15:16;99276.91;;;23.38;29.27
56713;BME280;42589;45.536;9.032;2023-04-02T19:22:07;99305.94;;;23.38;29.66
56713;BME280;42589;45.536;9.032;2023-04-02T19:25:38;99306.16;;;23.36;29.95
56713;BME280;42589;45.536;9.032;2023-04-02T19:32:28;99317.25;;;23.18;30.03
56713;BME280;42589;45.536;9.032;2023-04-02T19:45:42;99331.63;;;22.73;31.30
56713;BME280;42589;45.536;9.032;2023-04-02T19:49:04;99335.38;;;22.55;31.45
56713;BME280;42589;45.536;9.032;2023-04-02T19:52:14;99336.72;;;22.41;31.45
56713;BME280;42589;45.536;9.032;2023-04-02T19:55:17;99306.41;;;22.15;31.79
56713;BME280;42589;45.536;9.032;2023-04-02T19:58:34;99313.25;;;22.18;32.02
56713;BME280;42589;45.536;9.032;2023-04-02T20:01:37;99302.09;;;21.91;32.42
56713;BME280;42589;45.536;9.032;2023-04-02T20:04:42;99292.97;;;21.80;32.00
56713;BME280;42589;45.536;9.032;2023-04-02T20:07:44;99331.25;;;22.12;32.19
56713;BME280;42589;45.536;9.032;2023-04-02T20:10:49;99320.13;;;21.85;32.63
56713;BME280;42589;45.536;9.032;2023-04-02T20:13:59;99335.28;;;21.86;32.74
56713;BME280;42589;45.536;9.032;2023-04-02T20:17:00;99337.28;;;21.91;32.94
56713;BME280;42589;45.536;9.032;2023-04-02T20:20:02;99359.06;;;21.84;33.11
56713;BME280;42589;45.536;9.032;2023-04-02T20:23:03;99365.19;;;21.79;33.27